sensor_id;sensor_type;location;lat;lon;timestamp;P1;durP1;ratioP1;P2;durP2;ratioP2
11685;SDS011;5899;51.282;6.094;2023-05-16T13:23:14;3.70;;;1.30;;
11685;SDS011;5899;51.282;6.094;2023-05-16T13:25:53;1.83;;;1.15;;
11685;SDS011;5899;51.282;6.094;2023-05-16T13:28:21;1.75;;;1.17;;
11685;SDS011;5899;51.282;6.094;2023-05-16T13:30:51;2.35;;;1.40;;
11685;SDS011;5899;51.282;6.094;2023-05-16T13:33:18;2.45;;;1.20;;
11685;SDS011;5899;51.282;6.094;2023-05-16T13:35:46;1.77;;;1.20;;
11685;SDS011;5899;51.282;6.094;2023-05-16T13:38:19;2.65;;;1.38;;
11685;SDS011;5899;51.282;6.094;2023-05-16T13:40:48;2.58;;;1.33;;
11685;SDS011;5899;51.282;6.094;2023-05-16T13:43:17;2.30;;;1.40;;
11685;SDS011;5899;51.282;6.094;2023-05-16T13:45:44;3.00;;;1.13;;
11685;SDS011;5899;51.282;6.094;2023-05-16T13:48:11;2.78;;;1.40;;
11685;SDS011;5899;51.282;6.094;2023-05-16T13:50:40;3.25;;;1.50;;
11685;SDS011;5899;51.282;6.094;2023-05-16T13:53:13;4.05;;;1.35;;
11685;SDS011;5899;51.282;6.094;2023-05-16T13:55:45;2.72;;;1.30;;
11685;SDS011;5899;51.282;6.094;2023-05-16T13:58:14;2.72;;;1.83;;
11685;SDS011;5899;51.282;6.094;2023-05-16T14:00:46;4.10;;;1.75;;
11685;SDS011;5899;51.282;6.094;2023-05-16T14:03:15;4.53;;;1.63;;
11685;SDS011;5899;51.282;6.094;2023-05-16T14:05:47;2.20;;;1.30;;
11685;SDS011;5899;51.282;6.094;2023-05-16T14:11:24;1.67;;;1.25;;
11685;SDS011;5899;51.282;6.094;2023-05-16T14:13:51;2.72;;;1.40;;
11685;SDS011;5899;51.282;6.094;2023-05-16T14:16:19;2.63;;;1.40;;
11685;SDS011;5899;51.282;6.094;2023-05-16T14:18:46;3.85;;;1.50;;
11685;SDS011;5899;51.282;6.094;2023-05-16T14:21:13;2.45;;;1.25;;
11685;SDS011;5899;51.282;6.094;2023-05-16T14:23:40;2.42;;;1.23;;
11685;SDS011;5899;51.282;6.094;2023-05-16T14:26:06;2.03;;;1.30;;
11685;SDS011;5899;51.282;6.094;2023-05-16T14:28:34;2.15;;;1.33;;
11685;SDS011;5899;51.282;6.094;2023-05-16T14:31:05;4.40;;;1.40;;
11685;SDS011;5899;51.282;6.094;2023-05-16T14:33:35;4.13;;;1.52;;
11685;SDS011;5899;51.282;6.094;2023-05-16T14:36:05;3.45;;;1.50;;
11685;SDS011;5899;51.282;6.094;2023-05-16T14:38:41;2.00;;;1.20;;
11685;SDS011;5899;51.282;6.094;2023-05-16T14:41:10;1.85;;;1.30;;
11685;SDS011;5899;51.282;6.094;2023-05-16T14:43:39;2.90;;;1.45;;
11685;SDS011;5899;51.282;6.094;2023-05-16T14:46:06;2.25;;;1.20;;
11685;SDS011;5899;51.282;6.094;2023-05-16T14:48:32;2.35;;;1.48;;
11685;SDS011;5899;51.282;6.094;2023-05-16T14:50:59;2.77;;;1.40;;
11685;SDS011;5899;51.282;6.094;2023-05-16T14:53:25;2.60;;;1.42;;
11685;SDS011;5899;51.282;6.094;2023-05-16T14:55:52;2.25;;;1.33;;
11685;SDS011;5899;51.282;6.094;2023-05-16T14:58:21;3.00;;;1.38;;
11685;SDS011;5899;51.282;6.094;2023-05-16T15:00:56;1.83;;;1.27;;
11685;SDS011;5899;51.282;6.094;2023-05-16T15:03:23;2.63;;;1.30;;
11685;SDS011;5899;51.282;6.094;2023-05-16T15:05:50;2.72;;;1.08;;
11685;SDS011;5899;51.282;6.094;2023-05-16T15:08:18;3.25;;;1.42;;
11685;SDS011;5899;51.282;6.094;2023-05-16T15:10:46;2.88;;;1.50;;
11685;SDS011;5899;51.282;6.094;2023-05-16T15:13:12;3.20;;;1.50;;
11685;SDS011;5899;51.282;6.094;2023-05-16T15:15:39;2.08;;;1.30;;
11685;SDS011;5899;51.282;6.094;2023-05-16T15:18:07;3.22;;;1.80;;
11685;SDS011;5899;51.282;6.094;2023-05-16T15:20:35;1.52;;;1.13;;
11685;SDS011;5899;51.282;6.094;2023-05-16T15:23:01;4.32;;;1.45;;
11685;SDS011;5899;51.282;6.094;2023-05-16T15:25:28;1.77;;;1.30;;
11685;SDS011;5899;51.282;6.094;2023-05-16T15:27:55;4.22;;;2.72;;
11685;SDS011;5899;51.282;6.094;2023-05-16T15:30:21;1.75;;;1.27;;
11685;SDS011;5899;51.282;6.094;2023-05-16T15:32:48;2.13;;;1.10;;
11685;SDS011;5899;51.282;6.094;2023-05-16T15:35:20;4.60;;;1.55;;
11685;SDS011;5899;51.282;6.094;2023-05-16T15:37:46;3.37;;;1.17;;
11685;SDS011;5899;51.282;6.094;2023-05-16T15:40:13;3.15;;;1.52;;
11685;SDS011;5899;51.282;6.094;2023-05-16T15:42:40;5.75;;;1.50;;
11685;SDS011;5899;51.282;6.094;2023-05-16T15:45:08;4.00;;;1.60;;
11685;SDS011;5899;51.282;6.094;2023-05-16T15:47:35;5.63;;;2.05;;
11685;SDS011;5899;51.282;6.094;2023-05-16T15:50:02;2.47;;;1.38;;
11685;SDS011;5899;51.282;6.094;2023-05-16T15:52:30;3.45;;;1.60;;
11685;SDS011;5899;51.282;6.094;2023-05-16T15:54:56;3.30;;;1.42;;
11685;SDS011;5899;51.282;6.094;2023-05-16T15:57:26;1.80;;;1.40;;
11685;SDS011;5899;51.282;6.094;2023-05-16T15:59:52;3.13;;;1.35;;
11685;SDS011;5899;51.282;6.094;2023-05-16T16:02:19;2.80;;;1.33;;
11685;SDS011;5899;51.282;6.094;2023-05-16T16:04:48;4.93;;;1.30;;
11685;SDS011;5899;51.282;6.094;2023-05-16T16:07:15;3.42;;;1.67;;
11685;SDS011;5899;51.282;6.094;2023-05-16T16:09:51;2.17;;;1.58;;
11685;SDS011;5899;51.282;6.094;2023-05-16T16:12:22;3.87;;;1.50;;
11685;SDS011;5899;51.282;6.094;2023-05-16T16:14:50;5.60;;;1.80;;
11685;SDS011;5899;51.282;6.094;2023-05-16T16:17:19;1.48;;;1.10;;
11685;SDS011;5899;51.282;6.094;2023-05-16T16:19:46;2.58;;;1.52;;
11685;SDS011;5899;51.282;6.094;2023-05-16T16:22:13;2.88;;;1.38;;
11685;SDS011;5899;51.282;6.094;2023-05-16T16:24:40;3.90;;;1.60;;
11685;SDS011;5899;51.282;6.094;2023-05-16T16:27:08;3.80;;;1.65;;
11685;SDS011;5899;51.282;6.094;2023-05-16T16:29:36;2.75;;;1.42;;
11685;SDS011;5899;51.282;6.094;2023-05-16T16:32:03;2.80;;;1.60;;
11685;SDS011;5899;51.282;6.094;2023-05-16T16:34:29;4.22;;;1.35;;
11685;SDS011;5899;51.282;6.094;2023-05-16T16:36:56;4.20;;;1.50;;
11685;SDS011;5899;51.282;6.094;2023-05-16T16:39:25;4.65;;;1.60;;
11685;SDS011;5899;51.282;6.094;2023-05-16T16:41:52;2.67;;;1.25;;
11685;SDS011;5899;51.282;6.094;2023-05-16T16:44:20;2.27;;;1.30;;
11685;SDS011;5899;51.282;6.094;2023-05-16T16:46:46;1.88;;;1.40;;
11685;SDS011;5899;51.282;6.094;2023-05-16T16:49:13;2.63;;;1.58;;
11685;SDS011;5899;51.282;6.094;2023-05-16T16:51:41;1.55;;;1.40;;
11685;SDS011;5899;51.282;6.094;2023-05-16T16:54:09;3.60;;;1.40;;
11685;SDS011;5899;51.282;6.094;2023-05-16T16:56:35;2.28;;;1.45;;
11685;SDS011;5899;51.282;6.094;2023-05-16T16:59:02;3.43;;;2.00;;
11685;SDS011;5899;51.282;6.094;2023-05-16T17:01:33;3.53;;;1.60;;
11685;SDS011;5899;51.282;6.094;2023-05-16T17:04:01;2.35;;;1.42;;
11685;SDS011;5899;51.282;6.094;2023-05-16T17:06:27;2.58;;;1.55;;
11685;SDS011;5899;51.282;6.094;2023-05-16T17:08:56;2.80;;;1.40;;
11685;SDS011;5899;51.282;6.094;2023-05-16T17:11:26;3.78;;;1.70;;
11685;SDS011;5899;51.282;6.094;2023-05-16T17:13:53;3.70;;;1.40;;
11685;SDS011;5899;51.282;6.094;2023-05-16T17:16:23;4.97;;;1.60;;
11685;SDS011;5899;51.282;6.094;2023-05-16T17:18:51;3.22;;;1.50;;
11685;SDS011;5899;51.282;6.094;2023-05-16T17:21:18;3.10;;;1.70;;
11685;SDS011;5899;51.282;6.094;2023-05-16T17:23:47;2.13;;;1.40;;
11685;SDS011;5899;51.282;6.094;2023-05-16T17:26:15;4.80;;;1.70;;
11685;SDS011;5899;51.282;6.094;2023-05-16T17:28:56;1.80;;;1.50;;
11685;SDS011;5899;51.282;6.094;2023-05-16T17:31:42;5.38;;;1.45;;
11685;SDS011;5899;51.282;6.094;2023-05-16T17:37:39;3.30;;;1.50;;
11685;SDS011;5899;51.282;6.094;2023-05-16T17:40:07;1.80;;;1.30;;
11685;SDS011;5899;51.282;6.094;2023-05-16T17:42:40;2.03;;;1.40;;
11685;SDS011;5899;51.282;6.094;2023-05-16T17:45:07;3.05;;;1.40;;
11685;SDS011;5899;51.282;6.094;2023-05-16T17:47:37;3.40;;;2.10;;
11685;SDS011;5899;51.282;6.094;2023-05-16T17:50:05;2.17;;;1.60;;
11685;SDS011;5899;51.282;6.094;2023-05-16T17:52:32;3.85;;;1.77;;
11685;SDS011;5899;51.282;6.094;2023-05-16T17:55:00;2.67;;;1.40;;
11685;SDS011;5899;51.282;6.094;2023-05-16T17:57:26;2.85;;;1.40;;
11685;SDS011;5899;51.282;6.094;2023-05-16T17:59:53;1.83;;;1.30;;
11685;SDS011;5899;51.282;6.094;2023-05-16T18:02:20;1.38;;;1.20;;
11685;SDS011;5899;51.282;6.094;2023-05-16T18:04:46;5.70;;;1.58;;
11685;SDS011;5899;51.282;6.094;2023-05-16T18:07:13;2.90;;;1.30;;
11685;SDS011;5899;51.282;6.094;2023-05-16T18:09:40;2.00;;;1.33;;
11685;SDS011;5899;51.282;6.094;2023-05-16T18:12:11;1.95;;;1.30;;
11685;SDS011;5899;51.282;6.094;2023-05-16T18:14:39;3.28;;;1.30;;
11685;SDS011;5899;51.282;6.094;2023-05-16T18:17:07;3.95;;;1.40;;
11685;SDS011;5899;51.282;6.094;2023-05-16T18:19:33;2.83;;;1.60;;
11685;SDS011;5899;51.282;6.094;2023-05-16T18:22:00;3.70;;;1.92;;
11685;SDS011;5899;51.282;6.094;2023-05-16T18:24:31;3.85;;;1.40;;
11685;SDS011;5899;51.282;6.094;2023-05-16T18:26:59;3.92;;;1.40;;
11685;SDS011;5899;51.282;6.094;2023-05-16T18:29:28;3.03;;;1.45;;
11685;SDS011;5899;51.282;6.094;2023-05-16T18:31:55;2.08;;;1.20;;
11685;SDS011;5899;51.282;6.094;2023-05-16T18:34:22;1.77;;;1.48;;
11685;SDS011;5899;51.282;6.094;2023-05-16T18:36:48;3.75;;;1.52;;
11685;SDS011;5899;51.282;6.094;2023-05-16T18:39:15;2.10;;;1.40;;
11685;SDS011;5899;51.282;6.094;2023-05-16T18:41:48;3.33;;;1.40;;
11685;SDS011;5899;51.282;6.094;2023-05-16T18:44:15;2.85;;;1.13;;
11685;SDS011;5899;51.282;6.094;2023-05-16T18:46:44;4.10;;;1.47;;
11685;SDS011;5899;51.282;6.094;2023-05-16T18:49:11;2.50;;;1.60;;
11685;SDS011;5899;51.282;6.094;2023-05-16T18:51:39;2.85;;;1.42;;
11685;SDS011;5899;51.282;6.094;2023-05-16T18:54:08;2.13;;;1.60;;
11685;SDS011;5899;51.282;6.094;2023-05-16T18:56:34;2.17;;;1.60;;
11685;SDS011;5899;51.282;6.094;2023-05-16T18:59:01;2.22;;;1.30;;
11685;SDS011;5899;51.282;6.094;2023-05-16T19:01:30;2.90;;;1.40;;
11685;SDS011;5899;51.282;6.094;2023-05-16T19:04:00;2.88;;;1.48;;
11685;SDS011;5899;51.282;6.094;2023-05-16T19:06:26;2.67;;;1.63;;
11685;SDS011;5899;51.282;6.094;2023-05-16T19:08:53;2.08;;;1.20;;
11685;SDS011;5899;51.282;6.094;2023-05-16T19:11:20;3.90;;;1.95;;
11685;SDS011;5899;51.282;6.094;2023-05-16T19:13:48;3.22;;;1.52;;
11685;SDS011;5899;51.282;6.094;2023-05-16T19:16:15;2.78;;;1.40;;
11685;SDS011;5899;51.282;6.094;2023-05-16T19:18:41;4.43;;;2.30;;
11685;SDS011;5899;51.282;6.094;2023-05-16T19:21:09;2.95;;;1.60;;
11685;SDS011;5899;51.282;6.094;2023-05-16T19:23:37;3.45;;;1.40;;
11685;SDS011;5899;51.282;6.094;2023-05-16T19:26:04;3.40;;;1.50;;
11685;SDS011;5899;51.282;6.094;2023-05-16T19:28:30;2.42;;;1.33;;
11685;SDS011;5899;51.282;6.094;2023-05-16T19:31:03;2.10;;;1.50;;
11685;SDS011;5899;51.282;6.094;2023-05-16T19:33:30;3.20;;;1.60;;
11685;SDS011;5899;51.282;6.094;2023-05-16T19:35:58;1.80;;;1.50;;
11685;SDS011;5899;51.282;6.094;2023-05-16T19:38:27;3.83;;;1.80;;
11685;SDS011;5899;51.282;6.094;2023-05-16T19:40:53;1.70;;;1.35;;
11685;SDS011;5899;51.282;6.094;2023-05-16T19:43:20;3.05;;;1.70;;
11685;SDS011;5899;51.282;6.094;2023-05-16T19:45:49;2.95;;;1.60;;
11685;SDS011;5899;51.282;6.094;2023-05-16T19:48:15;3.17;;;1.50;;
11685;SDS011;5899;51.282;6.094;2023-05-16T19:50:45;3.13;;;1.40;;
11685;SDS011;5899;51.282;6.094;2023-05-16T19:53:12;2.60;;;1.58;;
11685;SDS011;5899;51.282;6.094;2023-05-16T19:55:41;2.03;;;1.42;;
11685;SDS011;5899;51.282;6.094;2023-05-16T19:58:09;3.90;;;1.65;;
11685;SDS011;5899;51.282;6.094;2023-05-16T20:00:36;4.43;;;1.80;;
11685;SDS011;5899;51.282;6.094;2023-05-16T20:03:03;3.10;;;1.50;;
11685;SDS011;5899;51.282;6.094;2023-05-16T20:05:29;2.28;;;1.58;;
11685;SDS011;5899;51.282;6.094;2023-05-16T20:08:02;3.97;;;1.57;;
11685;SDS011;5899;51.282;6.094;2023-05-16T20:10:33;2.90;;;1.60;;
11685;SDS011;5899;51.282;6.094;2023-05-16T20:13:06;2.53;;;1.40;;
11685;SDS011;5899;51.282;6.094;2023-05-16T20:15:33;3.05;;;1.55;;
11685;SDS011;5899;51.282;6.094;2023-05-16T20:17:59;3.58;;;1.60;;
11685;SDS011;5899;51.282;6.094;2023-05-16T20:20:28;3.38;;;1.60;;
11685;SDS011;5899;51.282;6.094;2023-05-16T20:22:55;3.20;;;1.45;;
11685;SDS011;5899;51.282;6.094;2023-05-16T20:25:22;4.07;;;1.70;;
11685;SDS011;5899;51.282;6.094;2023-05-16T20:27:48;1.90;;;1.60;;
11685;SDS011;5899;51.282;6.094;2023-05-16T20:30:22;3.05;;;1.60;;
11685;SDS011;5899;51.282;6.094;2023-05-16T20:32:48;1.93;;;1.70;;
11685;SDS011;5899;51.282;6.094;2023-05-16T20:35:17;1.60;;;1.50;;
11685;SDS011;5899;51.282;6.094;2023-05-16T20:37:43;6.57;;;2.08;;
11685;SDS011;5899;51.282;6.094;2023-05-16T20:40:13;2.55;;;1.75;;
11685;SDS011;5899;51.282;6.094;2023-05-16T20:42:39;2.10;;;1.50;;
11685;SDS011;5899;51.282;6.094;2023-05-16T20:45:06;4.47;;;1.80;;
11685;SDS011;5899;51.282;6.094;2023-05-16T20:47:37;3.05;;;2.38;;
11685;SDS011;5899;51.282;6.094;2023-05-16T20:50:04;3.38;;;1.80;;
11685;SDS011;5899;51.282;6.094;2023-05-16T20:52:32;3.28;;;1.90;;
11685;SDS011;5899;51.282;6.094;2023-05-16T20:54:59;3.47;;;1.98;;
11685;SDS011;5899;51.282;6.094;2023-05-16T20:57:32;2.38;;;2.00;;
11685;SDS011;5899;51.282;6.094;2023-05-16T21:00:01;2.72;;;2.20;;
11685;SDS011;5899;51.282;6.094;2023-05-16T21:02:28;3.85;;;2.15;;
11685;SDS011;5899;51.282;6.094;2023-05-16T21:04:57;2.35;;;1.90;;
11685;SDS011;5899;51.282;6.094;2023-05-16T21:07:23;2.70;;;2.10;;
11685;SDS011;5899;51.282;6.094;2023-05-16T21:09:50;2.83;;;2.25;;
11685;SDS011;5899;51.282;6.094;2023-05-16T21:12:19;2.10;;;1.73;;
11685;SDS011;5899;51.282;6.094;2023-05-16T21:14:46;3.00;;;1.80;;
11685;SDS011;5899;51.282;6.094;2023-05-16T21:17:12;3.38;;;1.92;;
11685;SDS011;5899;51.282;6.094;2023-05-16T21:19:39;2.13;;;1.87;;
11685;SDS011;5899;51.282;6.094;2023-05-16T21:22:07;3.97;;;1.92;;
11685;SDS011;5899;51.282;6.094;2023-05-16T21:24:33;1.80;;;1.70;;
11685;SDS011;5899;51.282;6.094;2023-05-16T21:27:01;2.38;;;1.95;;
11685;SDS011;5899;51.282;6.094;2023-05-16T21:29:28;11.90;;;6.77;;
11685;SDS011;5899;51.282;6.094;2023-05-16T21:31:54;8.75;;;4.97;;
11685;SDS011;5899;51.282;6.094;2023-05-16T21:34:21;6.30;;;3.10;;
11685;SDS011;5899;51.282;6.094;2023-05-16T21:36:49;3.15;;;2.30;;
11685;SDS011;5899;51.282;6.094;2023-05-16T21:39:17;2.92;;;1.92;;
11685;SDS011;5899;51.282;6.094;2023-05-16T21:41:43;2.40;;;1.90;;
11685;SDS011;5899;51.282;6.094;2023-05-16T21:44:10;2.72;;;2.13;;
11685;SDS011;5899;51.282;6.094;2023-05-16T21:46:41;3.83;;;1.97;;
11685;SDS011;5899;51.282;6.094;2023-05-16T21:49:07;3.20;;;2.00;;
11685;SDS011;5899;51.282;6.094;2023-05-16T21:51:34;3.95;;;1.88;;
11685;SDS011;5899;51.282;6.094;2023-05-16T21:54:01;5.10;;;1.80;;
11685;SDS011;5899;51.282;6.094;2023-05-16T21:56:29;2.60;;;1.90;;
11685;SDS011;5899;51.282;6.094;2023-05-16T21:58:56;3.80;;;2.45;;
11685;SDS011;5899;51.282;6.094;2023-05-16T22:01:23;3.03;;;1.92;;
11685;SDS011;5899;51.282;6.094;2023-05-16T22:03:52;2.38;;;2.13;;
11685;SDS011;5899;51.282;6.094;2023-05-16T22:06:29;2.20;;;2.00;;
11685;SDS011;5899;51.282;6.094;2023-05-16T22:09:00;2.90;;;2.00;;
11685;SDS011;5899;51.282;6.094;2023-05-16T22:11:27;1.80;;;1.70;;
11685;SDS011;5899;51.282;6.094;2023-05-16T22:13:55;2.28;;;1.90;;
11685;SDS011;5899;51.282;6.094;2023-05-16T22:16:21;1.90;;;1.70;;
11685;SDS011;5899;51.282;6.094;2023-05-16T22:18:48;2.35;;;1.90;;
11685;SDS011;5899;51.282;6.094;2023-05-16T22:21:16;2.60;;;1.98;;
11685;SDS011;5899;51.282;6.094;2023-05-16T22:23:44;3.70;;;2.50;;
11685;SDS011;5899;51.282;6.094;2023-05-16T22:26:10;2.60;;;1.88;;
11685;SDS011;5899;51.282;6.094;2023-05-16T22:28:37;2.38;;;2.10;;
11685;SDS011;5899;51.282;6.094;2023-05-16T22:34:04;3.28;;;2.08;;
11685;SDS011;5899;51.282;6.094;2023-05-16T22:36:33;2.60;;;2.40;;
11685;SDS011;5899;51.282;6.094;2023-05-16T22:39:08;2.60;;;2.33;;
11685;SDS011;5899;51.282;6.094;2023-05-16T22:41:34;2.45;;;2.20;;
11685;SDS011;5899;51.282;6.094;2023-05-16T22:44:08;2.90;;;2.13;;
11685;SDS011;5899;51.282;6.094;2023-05-16T22:46:40;2.50;;;2.20;;
11685;SDS011;5899;51.282;6.094;2023-05-16T22:49:10;3.60;;;2.90;;
11685;SDS011;5899;51.282;6.094;2023-05-16T22:51:37;3.00;;;2.40;;
11685;SDS011;5899;51.282;6.094;2023-05-16T22:54:03;3.20;;;2.42;;
11685;SDS011;5899;51.282;6.094;2023-05-16T22:56:31;3.53;;;2.58;;
11685;SDS011;5899;51.282;6.094;2023-05-16T22:58:59;3.67;;;2.50;;
11685;SDS011;5899;51.282;6.094;2023-05-16T23:01:29;3.35;;;2.30;;
11685;SDS011;5899;51.282;6.094;2023-05-16T23:03:57;4.07;;;2.95;;
11685;SDS011;5899;51.282;6.094;2023-05-16T23:06:26;5.63;;;2.53;;
11685;SDS011;5899;51.282;6.094;2023-05-16T23:09:01;3.57;;;2.57;;
11685;SDS011;5899;51.282;6.094;2023-05-16T23:11:41;3.75;;;2.88;;
11685;SDS011;5899;51.282;6.094;2023-05-16T23:14:10;5.37;;;2.70;;
11685;SDS011;5899;51.282;6.094;2023-05-16T23:16:42;4.38;;;2.85;;
11685;SDS011;5899;51.282;6.094;2023-05-16T23:19:11;5.15;;;3.28;;
11685;SDS011;5899;51.282;6.094;2023-05-16T23:21:44;5.25;;;3.03;;
11685;SDS011;5899;51.282;6.094;2023-05-16T23:24:13;3.72;;;2.65;;
11685;SDS011;5899;51.282;6.094;2023-05-16T23:26:49;6.40;;;2.60;;
11685;SDS011;5899;51.282;6.094;2023-05-16T23:29:20;3.60;;;2.43;;
11685;SDS011;5899;51.282;6.094;2023-05-16T23:31:50;3.55;;;2.88;;
11685;SDS011;5899;51.282;6.094;2023-05-16T23:34:25;6.00;;;3.72;;
11685;SDS011;5899;51.282;6.094;2023-05-16T23:36:53;3.50;;;2.55;;
11685;SDS011;5899;51.282;6.094;2023-05-16T23:39:20;4.25;;;2.72;;
11685;SDS011;5899;51.282;6.094;2023-05-16T23:41:55;4.88;;;3.10;;
11685;SDS011;5899;51.282;6.094;2023-05-16T23:44:27;3.95;;;2.80;;
11685;SDS011;5899;51.282;6.094;2023-05-16T23:46:58;5.30;;;3.23;;
11685;SDS011;5899;51.282;6.094;2023-05-16T23:49:38;3.13;;;2.67;;
11685;SDS011;5899;51.282;6.094;2023-05-16T23:52:08;4.03;;;3.00;;
11685;SDS011;5899;51.282;6.094;2023-05-16T23:54:34;4.20;;;2.85;;
11685;SDS011;5899;51.282;6.094;2023-05-16T23:57:01;4.25;;;2.97;;
11685;SDS011;5899;51.282;6.094;2023-05-16T23:59:28;6.72;;;3.20;;
